sensor_id;sensor_type;location;lat;lon;timestamp;pressure;altitude;pressure_sealevel;temperature;humidity
15884;BME280;8040;50.254;10.960;2023-07-16T00:00:14;97876.72;;;21.80;100.00
15884;BME280;8040;50.254;10.960;2023-07-16T00:02:40;97873.19;;;21.79;100.00
15884;BME280;8040;50.254;10.960;2023-07-16T00:05:06;97872.38;;;21.79;100.00
15884;BME280;8040;50.254;10.960;2023-07-16T00:07:31;97867.66;;;21.79;100.00
15884;BME280;8040;50.254;10.960;2023-07-16T00:09:56;97860.13;;;21.76;100.00
15884;BME280;8040;50.254;10.960;2023-07-16T00:12:22;97855.00;;;21.75;100.00
15884;BME280;8040;50.254;10.960;2023-07-16T00:14:47;97855.38;;;21.73;100.00
15884;BME280;8040;50.254;10.960;2023-07-16T00:17:13;97855.38;;;21.73;100.00
15884;BME280;8040;50.254;10.960;2023-07-16T00:19:44;97855.34;;;21.70;100.00
15884;BME280;8040;50.254;10.960;2023-07-16T00:22:10;97867.97;;;21.71;100.00
15884;BME280;8040;50.254;10.960;2023-07-16T00:24:35;97864.38;;;21.67;100.00
15884;BME280;8040;50.254;10.960;2023-07-16T00:27:00;97874.25;;;21.68;100.00
15884;BME280;8040;50.254;10.960;2023-07-16T00:29:26;97880.50;;;21.65;100.00
15884;BME280;8040;50.254;10.960;2023-07-16T00:31:51;97881.28;;;21.65;100.00
15884;BME280;8040;50.254;10.960;2023-07-16T00:34:16;97882.47;;;21.64;100.00
15884;BME280;8040;50.254;10.960;2023-07-16T00:36:42;97891.56;;;21.65;100.00
15884;BME280;8040;50.254;10.960;2023-07-16T00:39:07;97890.75;;;21.64;100.00
15884;BME280;8040;50.254;10.960;2023-07-16T00:41:34;97888.41;;;21.66;100.00
15884;BME280;8040;50.254;10.960;2023-07-16T00:43:59;97904.19;;;21.66;100.00
15884;BME280;8040;50.254;10.960;2023-07-16T00:46:24;97905.78;;;21.67;100.00
15884;BME280;8040;50.254;10.960;2023-07-16T00:48:50;97912.47;;;21.66;100.00
15884;BME280;8040;50.254;10.960;2023-07-16T00:51:16;97943.63;;;21.66;100.00
15884;BME280;8040;50.254;10.960;2023-07-16T00:53:41;97956.28;;;21.67;100.00
15884;BME280;8040;50.254;10.960;2023-07-16T00:56:08;97965.72;;;21.66;100.00
15884;BME280;8040;50.254;10.960;2023-07-16T00:58:33;97988.56;;;21.63;100.00
15884;BME280;8040;50.254;10.960;2023-07-16T01:00:59;98000.78;;;21.62;100.00
15884;BME280;8040;50.254;10.960;2023-07-16T01:06:22;97995.53;;;21.54;100.00
15884;BME280;8040;50.254;10.960;2023-07-16T01:11:34;97989.13;;;21.46;100.00
15884;BME280;8040;50.254;10.960;2023-07-16T01:14:02;97995.41;;;21.43;100.00
15884;BME280;8040;50.254;10.960;2023-07-16T01:16:28;97985.94;;;21.41;100.00
15884;BME280;8040;50.254;10.960;2023-07-16T01:18:53;97976.44;;;21.38;100.00
15884;BME280;8040;50.254;10.960;2023-07-16T01:21:23;97978.78;;;21.36;100.00
15884;BME280;8040;50.254;10.960;2023-07-16T01:23:57;97979.56;;;21.37;100.00
15884;BME280;8040;50.254;10.960;2023-07-16T01:31:44;97986.22;;;21.32;100.00
15884;BME280;8040;50.254;10.960;2023-07-16T01:34:11;97962.16;;;21.29;100.00
15884;BME280;8040;50.254;10.960;2023-07-16T01:36:36;97950.31;;;21.29;100.00
15884;BME280;8040;50.254;10.960;2023-07-16T01:39:03;97963.69;;;21.27;100.00
15884;BME280;8040;50.254;10.960;2023-07-16T01:41:29;97977.09;;;21.28;100.00
15884;BME280;8040;50.254;10.960;2023-07-16T01:43:54;97973.97;;;21.30;100.00
15884;BME280;8040;50.254;10.960;2023-07-16T01:46:19;97972.38;;;21.29;100.00
15884;BME280;8040;50.254;10.960;2023-07-16T01:48:45;97965.63;;;21.26;100.00
15884;BME280;8040;50.254;10.960;2023-07-16T01:51:10;97958.53;;;21.25;100.00
15884;BME280;8040;50.254;10.960;2023-07-16T01:53:39;97949.44;;;21.25;100.00
15884;BME280;8040;50.254;10.960;2023-07-16T01:56:04;97935.66;;;21.25;100.00
15884;BME280;8040;50.254;10.960;2023-07-16T01:58:29;97911.28;;;21.27;100.00
15884;BME280;8040;50.254;10.960;2023-07-16T02:00:55;97885.19;;;21.21;100.00
15884;BME280;8040;50.254;10.960;2023-07-16T02:03:20;97876.88;;;21.17;100.00
15884;BME280;8040;50.254;10.960;2023-07-16T02:05:47;97878.03;;;21.16;100.00
15884;BME280;8040;50.254;10.960;2023-07-16T02:08:13;97885.16;;;21.17;100.00
15884;BME280;8040;50.254;10.960;2023-07-16T02:10:38;97885.50;;;21.16;100.00
15884;BME280;8040;50.254;10.960;2023-07-16T02:13:05;97891.00;;;21.12;100.00
15884;BME280;8040;50.254;10.960;2023-07-16T02:15:31;97885.47;;;21.12;100.00
15884;BME280;8040;50.254;10.960;2023-07-16T02:17:57;97870.09;;;21.11;100.00
15884;BME280;8040;50.254;10.960;2023-07-16T02:20:22;97873.28;;;21.13;100.00
15884;BME280;8040;50.254;10.960;2023-07-16T02:22:47;97873.28;;;21.13;100.00
15884;BME280;8040;50.254;10.960;2023-07-16T02:25:13;97862.25;;;21.13;100.00
15884;BME280;8040;50.254;10.960;2023-07-16T02:27:52;97859.50;;;21.17;100.00
15884;BME280;8040;50.254;10.960;2023-07-16T02:30:17;97844.13;;;21.16;100.00
15884;BME280;8040;50.254;10.960;2023-07-16T02:32:43;97852.81;;;21.18;100.00
15884;BME280;8040;50.254;10.960;2023-07-16T02:35:09;97847.72;;;21.20;100.00
15884;BME280;8040;50.254;10.960;2023-07-16T02:37:35;97841.81;;;21.21;100.00
15884;BME280;8040;50.254;10.960;2023-07-16T02:40:00;97863.53;;;21.23;100.00
15884;BME280;8040;50.254;10.960;2023-07-16T02:42:26;97869.84;;;21.23;100.00
15884;BME280;8040;50.254;10.960;2023-07-16T02:44:51;97891.94;;;21.27;100.00
15884;BME280;8040;50.254;10.960;2023-07-16T02:47:17;97884.50;;;21.31;100.00
15884;BME280;8040;50.254;10.960;2023-07-16T02:52:26;97922.75;;;21.32;100.00
15884;BME280;8040;50.254;10.960;2023-07-16T02:54:51;97946.00;;;21.31;100.00
15884;BME280;8040;50.254;10.960;2023-07-16T02:57:17;97947.91;;;21.27;100.00
15884;BME280;8040;50.254;10.960;2023-07-16T02:59:42;97965.63;;;21.26;100.00
15884;BME280;8040;50.254;10.960;2023-07-16T03:02:08;97978.63;;;21.26;100.00
15884;BME280;8040;50.254;10.960;2023-07-16T03:04:36;97976.69;;;21.26;100.00
15884;BME280;8040;50.254;10.960;2023-07-16T03:07:05;97969.97;;;21.27;100.00
15884;BME280;8040;50.254;10.960;2023-07-16T03:09:30;97977.84;;;21.25;100.00
15884;BME280;8040;50.254;10.960;2023-07-16T03:11:57;97983.38;;;21.25;100.00
15884;BME280;8040;50.254;10.960;2023-07-16T03:14:22;97984.16;;;21.26;100.00
15884;BME280;8040;50.254;10.960;2023-07-16T03:16:48;97975.38;;;21.17;100.00
15884;BME280;8040;50.254;10.960;2023-07-16T03:19:13;97999.91;;;21.25;100.00
15884;BME280;8040;50.254;10.960;2023-07-16T03:21:41;97993.22;;;21.26;100.00
15884;BME280;8040;50.254;10.960;2023-07-16T03:24:08;97984.94;;;21.26;100.00
15884;BME280;8040;50.254;10.960;2023-07-16T03:26:33;97994.41;;;21.25;100.00
15884;BME280;8040;50.254;10.960;2023-07-16T03:28:58;98024.38;;;21.27;100.00
15884;BME280;8040;50.254;10.960;2023-07-16T03:31:23;98028.28;;;21.26;100.00
15884;BME280;8040;50.254;10.960;2023-07-16T03:36:52;98030.63;;;21.24;100.00
15884;BME280;8040;50.254;10.960;2023-07-16T03:39:17;98037.34;;;21.23;100.00
15884;BME280;8040;50.254;10.960;2023-07-16T03:41:43;98043.97;;;21.18;100.00
15884;BME280;8040;50.254;10.960;2023-07-16T03:44:08;98050.97;;;21.12;100.00
15884;BME280;8040;50.254;10.960;2023-07-16T03:46:33;98054.09;;;21.11;100.00
15884;BME280;8040;50.254;10.960;2023-07-16T03:49:00;98061.97;;;21.09;100.00
15884;BME280;8040;50.254;10.960;2023-07-16T03:51:29;98062.34;;;21.07;99.96
15884;BME280;8040;50.254;10.960;2023-07-16T03:53:55;98063.56;;;21.10;100.00
15884;BME280;8040;50.254;10.960;2023-07-16T03:56:24;98063.19;;;21.11;98.58
15884;BME280;8040;50.254;10.960;2023-07-16T03:58:49;98065.13;;;21.11;98.00
15884;BME280;8040;50.254;10.960;2023-07-16T04:01:14;98058.41;;;21.08;96.87
15884;BME280;8040;50.254;10.960;2023-07-16T04:03:40;98056.88;;;21.11;96.62
15884;BME280;8040;50.254;10.960;2023-07-16T04:06:06;98061.56;;;21.10;96.79
15884;BME280;8040;50.254;10.960;2023-07-16T04:08:34;98062.44;;;21.14;96.69
15884;BME280;8040;50.254;10.960;2023-07-16T04:10:59;98058.94;;;21.17;97.38
15884;BME280;8040;50.254;10.960;2023-07-16T04:13:24;98061.69;;;21.17;97.25
15884;BME280;8040;50.254;10.960;2023-07-16T04:15:50;98053.44;;;21.17;97.09
15884;BME280;8040;50.254;10.960;2023-07-16T04:18:24;98057.81;;;21.22;97.95
15884;BME280;8040;50.254;10.960;2023-07-16T04:20:50;98065.28;;;21.21;97.41
15884;BME280;8040;50.254;10.960;2023-07-16T04:23:15;98076.28;;;21.18;97.06
15884;BME280;8040;50.254;10.960;2023-07-16T04:25:41;98076.63;;;21.16;97.24
15884;BME280;8040;50.254;10.960;2023-07-16T04:28:06;98082.50;;;21.11;97.31
15884;BME280;8040;50.254;10.960;2023-07-16T04:30:31;98081.63;;;21.07;97.14
15884;BME280;8040;50.254;10.960;2023-07-16T04:32:57;98079.59;;;21.04;96.95
15884;BME280;8040;50.254;10.960;2023-07-16T04:35:22;98067.78;;;21.04;95.55
15884;BME280;8040;50.254;10.960;2023-07-16T04:37:47;98069.34;;;21.01;94.61
15884;BME280;8040;50.254;10.960;2023-07-16T04:46:59;98106.09;;;20.86;90.30
15884;BME280;8040;50.254;10.960;2023-07-16T04:49:25;98105.09;;;20.94;88.55
15884;BME280;8040;50.254;10.960;2023-07-16T04:51:50;98104.97;;;21.13;88.08
15884;BME280;8040;50.254;10.960;2023-07-16T04:54:16;98098.34;;;21.18;85.50
15884;BME280;8040;50.254;10.960;2023-07-16T04:56:41;98097.56;;;21.17;84.92
15884;BME280;8040;50.254;10.960;2023-07-16T04:59:06;98123.28;;;21.25;84.75
15884;BME280;8040;50.254;10.960;2023-07-16T05:01:32;98132.09;;;21.34;82.98
15884;BME280;8040;50.254;10.960;2023-07-16T05:03:57;98137.66;;;21.37;81.28
15884;BME280;8040;50.254;10.960;2023-07-16T05:06:22;98132.91;;;21.38;80.78
15884;BME280;8040;50.254;10.960;2023-07-16T05:08:51;98134.53;;;21.39;80.11
15884;BME280;8040;50.254;10.960;2023-07-16T05:11:16;98145.19;;;21.40;80.07
15884;BME280;8040;50.254;10.960;2023-07-16T05:13:41;98147.53;;;21.38;79.89
15884;BME280;8040;50.254;10.960;2023-07-16T05:16:07;98140.41;;;21.37;79.04
15884;BME280;8040;50.254;10.960;2023-07-16T05:18:32;98152.59;;;21.33;79.17
15884;BME280;8040;50.254;10.960;2023-07-16T05:20:57;98150.91;;;21.28;78.90
15884;BME280;8040;50.254;10.960;2023-07-16T05:23:23;98148.50;;;21.23;78.78
15884;BME280;8040;50.254;10.960;2023-07-16T05:25:48;98161.47;;;21.23;79.17
15884;BME280;8040;50.254;10.960;2023-07-16T05:28:14;98167.81;;;21.23;79.17
15884;BME280;8040;50.254;10.960;2023-07-16T05:30:39;98163.03;;;21.20;78.34
15884;BME280;8040;50.254;10.960;2023-07-16T05:33:05;98178.16;;;21.30;78.51
15884;BME280;8040;50.254;10.960;2023-07-16T05:35:30;98172.38;;;21.38;78.06
15884;BME280;8040;50.254;10.960;2023-07-16T05:37:55;98186.06;;;21.31;77.04
15884;BME280;8040;50.254;10.960;2023-07-16T05:40:21;98187.91;;;21.24;77.33
15884;BME280;8040;50.254;10.960;2023-07-16T05:42:46;98182.75;;;21.22;78.22
15884;BME280;8040;50.254;10.960;2023-07-16T05:45:11;98191.41;;;21.21;78.83
15884;BME280;8040;50.254;10.960;2023-07-16T05:47:37;98189.03;;;21.19;78.55
15884;BME280;8040;50.254;10.960;2023-07-16T05:52:46;98197.75;;;21.25;77.63
15884;BME280;8040;50.254;10.960;2023-07-16T05:55:13;98209.66;;;21.29;77.66
15884;BME280;8040;50.254;10.960;2023-07-16T05:57:39;98202.19;;;21.29;77.77
15884;BME280;8040;50.254;10.960;2023-07-16T06:00:04;98214.00;;;21.30;77.95
15884;BME280;8040;50.254;10.960;2023-07-16T06:02:30;98221.63;;;21.36;76.75
15884;BME280;8040;50.254;10.960;2023-07-16T06:04:55;98218.22;;;21.46;76.33
15884;BME280;8040;50.254;10.960;2023-07-16T06:07:21;98221.16;;;21.57;75.59
15884;BME280;8040;50.254;10.960;2023-07-16T06:09:46;98204.66;;;21.60;73.81
15884;BME280;8040;50.254;10.960;2023-07-16T06:12:13;98218.09;;;21.65;73.25
15884;BME280;8040;50.254;10.960;2023-07-16T06:14:38;98230.41;;;21.68;72.89
15884;BME280;8040;50.254;10.960;2023-07-16T06:17:03;98234.84;;;21.72;71.40
15884;BME280;8040;50.254;10.960;2023-07-16T06:19:29;98241.09;;;21.69;70.84
15884;BME280;8040;50.254;10.960;2023-07-16T06:21:54;98232.53;;;21.78;69.60
15884;BME280;8040;50.254;10.960;2023-07-16T06:24:19;98235.72;;;21.80;68.69
15884;BME280;8040;50.254;10.960;2023-07-16T06:26:47;98243.53;;;21.74;68.60
15884;BME280;8040;50.254;10.960;2023-07-16T06:29:13;98249.00;;;21.71;67.66
15884;BME280;8040;50.254;10.960;2023-07-16T06:31:38;98236.66;;;21.65;67.12
15884;BME280;8040;50.254;10.960;2023-07-16T06:34:07;98227.50;;;21.61;67.02
15884;BME280;8040;50.254;10.960;2023-07-16T06:36:32;98241.31;;;21.61;66.60
15884;BME280;8040;50.254;10.960;2023-07-16T06:38:57;98245.63;;;21.58;66.53
15884;BME280;8040;50.254;10.960;2023-07-16T06:41:25;98248.44;;;21.62;67.05
15884;BME280;8040;50.254;10.960;2023-07-16T06:43:50;98240.09;;;21.58;67.19
15884;BME280;8040;50.254;10.960;2023-07-16T06:46:16;98230.13;;;21.50;67.21
15884;BME280;8040;50.254;10.960;2023-07-16T06:48:41;98224.84;;;21.42;68.05
15884;BME280;8040;50.254;10.960;2023-07-16T06:51:06;98236.81;;;21.49;67.74
15884;BME280;8040;50.254;10.960;2023-07-16T06:53:32;98233.69;;;21.51;67.92
15884;BME280;8040;50.254;10.960;2023-07-16T06:59:25;98225.25;;;21.66;69.10
15884;BME280;8040;50.254;10.960;2023-07-16T07:01:50;98239.06;;;21.66;67.76
15884;BME280;8040;50.254;10.960;2023-07-16T07:04:16;98231.25;;;21.72;67.86
15884;BME280;8040;50.254;10.960;2023-07-16T07:06:41;98228.78;;;21.93;68.15
15884;BME280;8040;50.254;10.960;2023-07-16T07:09:06;98226.13;;;22.29;65.75
15884;BME280;8040;50.254;10.960;2023-07-16T07:11:32;98227.94;;;22.48;62.50
15884;BME280;8040;50.254;10.960;2023-07-16T07:13:57;98232.38;;;22.52;61.38
15884;BME280;8040;50.254;10.960;2023-07-16T07:16:23;98235.09;;;22.49;60.89
15884;BME280;8040;50.254;10.960;2023-07-16T07:18:48;98238.00;;;22.63;61.30
15884;BME280;8040;50.254;10.960;2023-07-16T07:21:14;98230.22;;;22.75;60.40
15884;BME280;8040;50.254;10.960;2023-07-16T07:23:39;98231.66;;;22.95;60.64
15884;BME280;8040;50.254;10.960;2023-07-16T07:26:05;98229.16;;;23.23;60.29
15884;BME280;8040;50.254;10.960;2023-07-16T07:28:30;98246.00;;;23.51;59.50
15884;BME280;8040;50.254;10.960;2023-07-16T07:30:56;98248.81;;;23.55;59.45
15884;BME280;8040;50.254;10.960;2023-07-16T07:33:21;98254.97;;;23.34;59.18
15884;BME280;8040;50.254;10.960;2023-07-16T07:35:46;98247.75;;;23.23;58.76
15884;BME280;8040;50.254;10.960;2023-07-16T07:38:12;98257.59;;;23.20;58.76
15884;BME280;8040;50.254;10.960;2023-07-16T07:40:37;98251.72;;;23.25;58.72
15884;BME280;8040;50.254;10.960;2023-07-16T07:43:04;98249.63;;;23.15;58.90
15884;BME280;8040;50.254;10.960;2023-07-16T07:45:29;98270.63;;;23.16;57.97
15884;BME280;8040;50.254;10.960;2023-07-16T07:47:54;98275.72;;;23.14;57.30
15884;BME280;8040;50.254;10.960;2023-07-16T07:50:20;98264.34;;;23.19;56.78
15884;BME280;8040;50.254;10.960;2023-07-16T07:52:45;98268.75;;;23.27;56.62
15884;BME280;8040;50.254;10.960;2023-07-16T07:55:11;98271.50;;;23.27;56.79
15884;BME280;8040;50.254;10.960;2023-07-16T07:57:36;98271.16;;;23.32;55.98
15884;BME280;8040;50.254;10.960;2023-07-16T08:00:01;98270.78;;;23.34;55.53
15884;BME280;8040;50.254;10.960;2023-07-16T08:02:27;98273.22;;;23.42;54.52
15884;BME280;8040;50.254;10.960;2023-07-16T08:04:53;98270.22;;;23.61;53.79
15884;BME280;8040;50.254;10.960;2023-07-16T08:07:18;98274.16;;;23.60;52.58
15884;BME280;8040;50.254;10.960;2023-07-16T08:09:45;98265.91;;;23.64;51.75
15884;BME280;8040;50.254;10.960;2023-07-16T08:12:10;98261.53;;;23.66;51.38
15884;BME280;8040;50.254;10.960;2023-07-16T08:14:35;98256.84;;;23.70;51.00
15884;BME280;8040;50.254;10.960;2023-07-16T08:17:00;98266.28;;;23.62;50.82
15884;BME280;8040;50.254;10.960;2023-07-16T08:19:26;98269.81;;;23.59;51.75
15884;BME280;8040;50.254;10.960;2023-07-16T08:21:51;98276.34;;;23.37;52.25
15884;BME280;8040;50.254;10.960;2023-07-16T08:24:17;98277.88;;;23.31;52.72
15884;BME280;8040;50.254;10.960;2023-07-16T08:26:43;98272.38;;;23.35;53.08
15884;BME280;8040;50.254;10.960;2023-07-16T08:29:08;98261.34;;;23.38;53.08
15884;BME280;8040;50.254;10.960;2023-07-16T08:31:34;98262.13;;;23.42;53.93
15884;BME280;8040;50.254;10.960;2023-07-16T08:33:59;98273.22;;;23.42;54.16
15884;BME280;8040;50.254;10.960;2023-07-16T08:36:25;98266.38;;;23.29;54.33
15884;BME280;8040;50.254;10.960;2023-07-16T08:38:50;98262.13;;;23.42;54.78
15884;BME280;8040;50.254;10.960;2023-07-16T08:41:16;98278.06;;;23.52;54.65
15884;BME280;8040;50.254;10.960;2023-07-16T08:43:41;98266.31;;;23.66;52.43
15884;BME280;8040;50.254;10.960;2023-07-16T08:46:08;98271.91;;;23.76;50.40
15884;BME280;8040;50.254;10.960;2023-07-16T08:48:33;98278.69;;;23.82;50.94
15884;BME280;8040;50.254;10.960;2023-07-16T08:50:58;98286.19;;;23.82;50.02
15884;BME280;8040;50.254;10.960;2023-07-16T08:53:26;98277.06;;;23.78;49.74
15884;BME280;8040;50.254;10.960;2023-07-16T08:55:51;98277.13;;;23.85;49.38
15884;BME280;8040;50.254;10.960;2023-07-16T08:58:17;98284.31;;;23.93;47.76
15884;BME280;8040;50.254;10.960;2023-07-16T09:00:43;98285.56;;;23.99;48.10
15884;BME280;8040;50.254;10.960;2023-07-16T09:03:12;98287.16;;;24.03;48.00
15884;BME280;8040;50.254;10.960;2023-07-16T09:05:46;98290.75;;;24.07;48.15
15884;BME280;8040;50.254;10.960;2023-07-16T09:08:12;98294.72;;;24.06;48.32
15884;BME280;8040;50.254;10.960;2023-07-16T09:10:39;98289.56;;;24.08;47.99
15884;BME280;8040;50.254;10.960;2023-07-16T09:13:05;98288.03;;;24.18;48.00
15884;BME280;8040;50.254;10.960;2023-07-16T09:15:30;98293.66;;;24.25;46.50
15884;BME280;8040;50.254;10.960;2023-07-16T09:17:56;98297.25;;;24.32;45.98
15884;BME280;8040;50.254;10.960;2023-07-16T09:20:21;98319.88;;;24.41;47.67
15884;BME280;8040;50.254;10.960;2023-07-16T09:22:49;98316.75;;;24.46;45.92
15884;BME280;8040;50.254;10.960;2023-07-16T09:25:14;98321.84;;;24.37;44.12
15884;BME280;8040;50.254;10.960;2023-07-16T09:27:39;98319.03;;;24.30;43.40
15884;BME280;8040;50.254;10.960;2023-07-16T09:30:05;98317.88;;;24.38;44.08
15884;BME280;8040;50.254;10.960;2023-07-16T09:32:35;98311.13;;;24.36;43.49
15884;BME280;8040;50.254;10.960;2023-07-16T09:35:05;98317.50;;;24.40;44.97
15884;BME280;8040;50.254;10.960;2023-07-16T09:37:31;98327.41;;;24.41;43.35
15884;BME280;8040;50.254;10.960;2023-07-16T09:39:56;98321.84;;;24.41;43.47
15884;BME280;8040;50.254;10.960;2023-07-16T09:45:00;98315.59;;;24.54;43.81
15884;BME280;8040;50.254;10.960;2023-07-16T09:47:26;98316.03;;;24.63;44.69
15884;BME280;8040;50.254;10.960;2023-07-16T09:49:51;98317.59;;;24.57;42.24
15884;BME280;8040;50.254;10.960;2023-07-16T09:52:17;98326.31;;;24.56;43.20
15884;BME280;8040;50.254;10.960;2023-07-16T09:54:42;98331.78;;;24.49;41.67
15884;BME280;8040;50.254;10.960;2023-07-16T09:57:10;98331.75;;;24.42;42.82
15884;BME280;8040;50.254;10.960;2023-07-16T09:59:35;98326.97;;;24.32;43.34
15884;BME280;8040;50.254;10.960;2023-07-16T10:02:01;98325.44;;;24.41;44.11
15884;BME280;8040;50.254;10.960;2023-07-16T10:04:26;98331.31;;;24.29;43.37
15884;BME280;8040;50.254;10.960;2023-07-16T10:07:02;98322.97;;;24.29;44.49
15884;BME280;8040;50.254;10.960;2023-07-16T10:09:39;98306.31;;;24.22;43.20
15884;BME280;8040;50.254;10.960;2023-07-16T10:14:41;98313.44;;;24.23;44.49
15884;BME280;8040;50.254;10.960;2023-07-16T10:17:06;98318.19;;;24.23;44.34
15884;BME280;8040;50.254;10.960;2023-07-16T10:22:17;98306.03;;;24.41;44.64
15884;BME280;8040;50.254;10.960;2023-07-16T10:28:08;98312.16;;;24.78;44.63
15884;BME280;8040;50.254;10.960;2023-07-16T10:30:33;98307.38;;;24.79;42.96
15884;BME280;8040;50.254;10.960;2023-07-16T10:33:02;98308.19;;;24.79;42.52
15884;BME280;8040;50.254;10.960;2023-07-16T10:35:28;98303.81;;;24.68;43.04
15884;BME280;8040;50.254;10.960;2023-07-16T10:37:54;98303.75;;;24.61;43.30
15884;BME280;8040;50.254;10.960;2023-07-16T10:40:19;98300.97;;;24.64;45.46
15884;BME280;8040;50.254;10.960;2023-07-16T10:42:44;98296.63;;;24.63;44.25
15884;BME280;8040;50.254;10.960;2023-07-16T10:45:11;98297.06;;;24.69;44.78
15884;BME280;8040;50.254;10.960;2023-07-16T10:47:37;98306.53;;;24.64;44.02
15884;BME280;8040;50.254;10.960;2023-07-16T10:52:37;98313.19;;;24.53;44.36
15884;BME280;8040;50.254;10.960;2023-07-16T10:55:03;98304.88;;;24.56;44.89
15884;BME280;8040;50.254;10.960;2023-07-16T10:57:29;98303.31;;;24.55;44.52
15884;BME280;8040;50.254;10.960;2023-07-16T10:59:55;98300.19;;;24.57;44.57
15884;BME280;8040;50.254;10.960;2023-07-16T11:02:22;98303.69;;;24.54;42.97
15884;BME280;8040;50.254;10.960;2023-07-16T11:04:47;98295.41;;;24.61;43.34
15884;BME280;8040;50.254;10.960;2023-07-16T11:07:13;98300.63;;;24.69;44.04
15884;BME280;8040;50.254;10.960;2023-07-16T11:09:46;98297.03;;;24.62;42.65
15884;BME280;8040;50.254;10.960;2023-07-16T11:12:13;98295.50;;;24.78;44.16
15884;BME280;8040;50.254;10.960;2023-07-16T11:14:39;98287.22;;;24.96;43.13
15884;BME280;8040;50.254;10.960;2023-07-16T11:17:07;98287.69;;;25.12;42.35
15884;BME280;8040;50.254;10.960;2023-07-16T11:19:34;98297.22;;;25.21;41.75
15884;BME280;8040;50.254;10.960;2023-07-16T11:22:00;98286.94;;;25.25;42.31
15884;BME280;8040;50.254;10.960;2023-07-16T11:24:25;98298.84;;;25.36;42.33
15884;BME280;8040;50.254;10.960;2023-07-16T11:26:52;98302.81;;;25.32;41.25
15884;BME280;8040;50.254;10.960;2023-07-16T11:29:18;98299.63;;;25.26;41.56
15884;BME280;8040;50.254;10.960;2023-07-16T11:31:50;98307.13;;;25.22;41.66
15884;BME280;8040;50.254;10.960;2023-07-16T11:34:16;98305.09;;;25.12;41.34
15884;BME280;8040;50.254;10.960;2023-07-16T11:36:42;98290.44;;;25.01;40.98
15884;BME280;8040;50.254;10.960;2023-07-16T11:39:07;98293.97;;;24.98;41.14
15884;BME280;8040;50.254;10.960;2023-07-16T11:41:33;98290.81;;;25.03;41.65
15884;BME280;8040;50.254;10.960;2023-07-16T11:44:01;98296.00;;;25.12;41.55
15884;BME280;8040;50.254;10.960;2023-07-16T11:46:30;98291.66;;;25.11;41.05
15884;BME280;8040;50.254;10.960;2023-07-16T11:48:59;98279.72;;;25.10;42.87
15884;BME280;8040;50.254;10.960;2023-07-16T11:51:41;98290.06;;;25.13;43.12
15884;BME280;8040;50.254;10.960;2023-07-16T11:54:09;98292.41;;;25.11;40.52
15884;BME280;8040;50.254;10.960;2023-07-16T11:56:35;98302.75;;;25.21;42.04
15884;BME280;8040;50.254;10.960;2023-07-16T11:59:01;98297.25;;;25.28;40.92
15884;BME280;8040;50.254;10.960;2023-07-16T12:01:27;98295.28;;;25.39;41.63
15884;BME280;8040;50.254;10.960;2023-07-16T12:03:52;98293.28;;;25.43;40.60
15884;BME280;8040;50.254;10.960;2023-07-16T12:06:17;98291.31;;;25.47;39.98
15884;BME280;8040;50.254;10.960;2023-07-16T12:08:43;98296.09;;;25.54;41.10
15884;BME280;8040;50.254;10.960;2023-07-16T12:11:08;98287.75;;;25.50;39.04
15884;BME280;8040;50.254;10.960;2023-07-16T12:13:33;98282.97;;;25.44;39.28
15884;BME280;8040;50.254;10.960;2023-07-16T12:15:59;98294.09;;;25.44;40.82
15884;BME280;8040;50.254;10.960;2023-07-16T12:18:24;98266.31;;;25.37;39.87
15884;BME280;8040;50.254;10.960;2023-07-16T12:20:49;98277.44;;;25.44;39.83
15884;BME280;8040;50.254;10.960;2023-07-16T12:23:15;98285.75;;;25.47;40.03
15884;BME280;8040;50.254;10.960;2023-07-16T12:25:40;98283.78;;;25.51;40.26
15884;BME280;8040;50.254;10.960;2023-07-16T12:28:05;98277.44;;;25.47;40.74
15884;BME280;8040;50.254;10.960;2023-07-16T12:30:31;98283.38;;;25.42;41.59
15884;BME280;8040;50.254;10.960;2023-07-16T12:32:56;98280.59;;;25.42;39.52
15884;BME280;8040;50.254;10.960;2023-07-16T12:35:21;98283.38;;;25.35;39.97
15884;BME280;8040;50.254;10.960;2023-07-16T12:37:52;98280.59;;;25.35;39.72
15884;BME280;8040;50.254;10.960;2023-07-16T12:40:17;98270.28;;;25.39;39.70
15884;BME280;8040;50.254;10.960;2023-07-16T12:42:43;98267.13;;;25.48;39.23
15884;BME280;8040;50.254;10.960;2023-07-16T12:45:09;98273.47;;;25.59;39.78
15884;BME280;8040;50.254;10.960;2023-07-16T12:47:34;98271.09;;;25.64;39.12
15884;BME280;8040;50.254;10.960;2023-07-16T12:50:00;98270.28;;;25.71;39.82
15884;BME280;8040;50.254;10.960;2023-07-16T12:52:25;98275.44;;;25.79;40.63
15884;BME280;8040;50.254;10.960;2023-07-16T12:54:51;98277.81;;;25.77;39.33
15884;BME280;8040;50.254;10.960;2023-07-16T12:57:17;98273.47;;;25.69;38.43
15884;BME280;8040;50.254;10.960;2023-07-16T12:59:43;98271.88;;;25.61;39.33
15884;BME280;8040;50.254;10.960;2023-07-16T13:02:08;98275.84;;;25.60;38.93
15884;BME280;8040;50.254;10.960;2023-07-16T13:04:33;98271.47;;;25.59;39.86
15884;BME280;8040;50.254;10.960;2023-07-16T13:06:59;98263.13;;;25.63;38.61
15884;BME280;8040;50.254;10.960;2023-07-16T13:09:24;98259.16;;;25.67;38.39
15884;BME280;8040;50.254;10.960;2023-07-16T13:11:49;98274.25;;;25.73;38.97
15884;BME280;8040;50.254;10.960;2023-07-16T13:14:16;98276.25;;;25.76;38.74
15884;BME280;8040;50.254;10.960;2023-07-16T13:16:42;98271.06;;;25.75;38.35
15884;BME280;8040;50.254;10.960;2023-07-16T13:19:07;98263.53;;;25.79;38.14
15884;BME280;8040;50.254;10.960;2023-07-16T13:21:35;98265.09;;;25.83;38.61
15884;BME280;8040;50.254;10.960;2023-07-16T13:24:01;98265.09;;;25.83;37.44
15884;BME280;8040;50.254;10.960;2023-07-16T13:26:27;98277.81;;;25.84;39.15
15884;BME280;8040;50.254;10.960;2023-07-16T13:28:53;98268.28;;;25.85;39.17
15884;BME280;8040;50.254;10.960;2023-07-16T13:31:18;98269.47;;;25.88;37.57
15884;BME280;8040;50.254;10.960;2023-07-16T13:33:43;98269.50;;;25.91;37.84